sensor_id;sensor_type;location;lat;lon;timestamp;pressure;altitude;pressure_sealevel;temperature;humidity
7268;BME280;3675;43.276;27.962;2024-03-29T00:01:27;97635.47;;;13.28;68.34
7268;BME280;3675;43.276;27.962;2024-03-29T00:04:20;97641.13;;;13.35;68.67
7268;BME280;3675;43.276;27.962;2024-03-29T00:07:01;97645.19;;;13.39;68.37
7268;BME280;3675;43.276;27.962;2024-03-29T00:13:20;97635.53;;;13.41;68.33
7268;BME280;3675;43.276;27.962;2024-03-29T00:16:28;97643.13;;;13.44;68.29
7268;BME280;3675;43.276;27.962;2024-03-29T00:18:59;97643.84;;;13.46;68.38
7268;BME280;3675;43.276;27.962;2024-03-29T00:21:45;97641.38;;;13.44;67.98
7268;BME280;3675;43.276;27.962;2024-03-29T00:24:37;97636.47;;;13.40;68.31
7268;BME280;3675;43.276;27.962;2024-03-29T00:33:58;97651.59;;;13.33;68.06
7268;BME280;3675;43.276;27.962;2024-03-29T00:40:58;97658.94;;;13.27;68.64
7268;BME280;3675;43.276;27.962;2024-03-29T00:43:42;97655.69;;;13.23;68.62
7268;BME280;3675;43.276;27.962;2024-03-29T00:46:30;97659.41;;;13.19;68.26
7268;BME280;3675;43.276;27.962;2024-03-29T00:49:27;97665.63;;;13.17;68.63
7268;BME280;3675;43.276;27.962;2024-03-29T00:52:37;97665.09;;;13.12;68.92
7268;BME280;3675;43.276;27.962;2024-03-29T00:55:37;97668.97;;;13.04;69.08
7268;BME280;3675;43.276;27.962;2024-03-29T00:58:37;97664.50;;;13.06;69.32
7268;BME280;3675;43.276;27.962;2024-03-29T01:01:39;97662.81;;;13.05;69.58
7268;BME280;3675;43.276;27.962;2024-03-29T01:08:24;97652.09;;;12.97;70.19
7268;BME280;3675;43.276;27.962;2024-03-29T01:11:22;97650.72;;;12.92;70.54
7268;BME280;3675;43.276;27.962;2024-03-29T01:14:21;97644.78;;;12.90;70.78
7268;BME280;3675;43.276;27.962;2024-03-29T01:18:15;97642.94;;;12.92;71.27
7268;BME280;3675;43.276;27.962;2024-03-29T01:20:18;97646.25;;;12.94;70.99
7268;BME280;3675;43.276;27.962;2024-03-29T01:23:18;97648.78;;;12.95;71.43
7268;BME280;3675;43.276;27.962;2024-03-29T01:27:26;97646.34;;;12.92;71.31
7268;BME280;3675;43.276;27.962;2024-03-29T01:29:24;97659.44;;;12.91;71.19
7268;BME280;3675;43.276;27.962;2024-03-29T01:32:30;97655.91;;;12.92;71.34
7268;BME280;3675;43.276;27.962;2024-03-29T01:35:08;97657.47;;;12.94;71.06
7268;BME280;3675;43.276;27.962;2024-03-29T01:38:07;97660.81;;;12.96;70.81
7268;BME280;3675;43.276;27.962;2024-03-29T01:41:14;97648.84;;;12.94;70.79
7268;BME280;3675;43.276;27.962;2024-03-29T01:43:51;97666.81;;;12.97;70.75
7268;BME280;3675;43.276;27.962;2024-03-29T01:46:56;97675.44;;;12.97;70.70
7268;BME280;3675;43.276;27.962;2024-03-29T01:49:48;97675.56;;;12.96;70.62
7268;BME280;3675;43.276;27.962;2024-03-29T01:53:07;97687.97;;;12.91;70.86
7268;BME280;3675;43.276;27.962;2024-03-29T01:58:57;97704.66;;;12.87;70.90
7268;BME280;3675;43.276;27.962;2024-03-29T02:02:13;97711.78;;;12.83;71.46
7268;BME280;3675;43.276;27.962;2024-03-29T02:05:06;97716.03;;;12.84;71.69
7268;BME280;3675;43.276;27.962;2024-03-29T02:08:06;97712.59;;;12.84;72.31
7268;BME280;3675;43.276;27.962;2024-03-29T02:11:35;97708.44;;;12.81;72.59
7268;BME280;3675;43.276;27.962;2024-03-29T02:14:56;97710.00;;;12.84;72.32
7268;BME280;3675;43.276;27.962;2024-03-29T02:17:38;97717.72;;;12.85;72.53
7268;BME280;3675;43.276;27.962;2024-03-29T02:20:49;97718.47;;;12.87;72.40
7268;BME280;3675;43.276;27.962;2024-03-29T02:24:10;97713.16;;;12.89;72.32
7268;BME280;3675;43.276;27.962;2024-03-29T02:27:20;97713.63;;;12.81;72.26
7268;BME280;3675;43.276;27.962;2024-03-29T02:30:18;97729.75;;;12.86;72.31
7268;BME280;3675;43.276;27.962;2024-03-29T02:33:09;97722.81;;;12.87;71.96
7268;BME280;3675;43.276;27.962;2024-03-29T02:36:25;97725.56;;;12.84;72.18
7268;BME280;3675;43.276;27.962;2024-03-29T02:40:02;97718.53;;;12.86;71.94
7268;BME280;3675;43.276;27.962;2024-03-29T02:42:52;97725.97;;;12.92;71.60
7268;BME280;3675;43.276;27.962;2024-03-29T02:46:16;97716.59;;;12.89;71.71
7268;BME280;3675;43.276;27.962;2024-03-29T02:49:19;97724.88;;;12.96;71.51
7268;BME280;3675;43.276;27.962;2024-03-29T02:52:08;97724.19;;;12.92;71.06
7268;BME280;3675;43.276;27.962;2024-03-29T02:54:58;97728.47;;;12.93;71.28
7268;BME280;3675;43.276;27.962;2024-03-29T02:57:49;97732.94;;;12.91;71.16
7268;BME280;3675;43.276;27.962;2024-03-29T03:01:18;97731.88;;;12.94;70.58
7268;BME280;3675;43.276;27.962;2024-03-29T03:07:17;97723.75;;;13.00;70.41
7268;BME280;3675;43.276;27.962;2024-03-29T03:11:11;97734.41;;;13.10;70.33
7268;BME280;3675;43.276;27.962;2024-03-29T03:14:01;97730.91;;;13.11;69.85
7268;BME280;3675;43.276;27.962;2024-03-29T03:17:08;97743.59;;;13.15;69.61
7268;BME280;3675;43.276;27.962;2024-03-29T03:20:19;97742.03;;;13.13;69.87
7268;BME280;3675;43.276;27.962;2024-03-29T03:22:59;97740.53;;;13.09;69.94
7268;BME280;3675;43.276;27.962;2024-03-29T03:26:21;97736.81;;;12.98;70.26
7268;BME280;3675;43.276;27.962;2024-03-29T03:29:07;97742.00;;;12.98;70.74
7268;BME280;3675;43.276;27.962;2024-03-29T03:31:56;97749.97;;;12.95;70.79
7268;BME280;3675;43.276;27.962;2024-03-29T03:34:52;97736.44;;;12.90;70.85
7268;BME280;3675;43.276;27.962;2024-03-29T03:38:13;97736.44;;;12.90;70.86
7268;BME280;3675;43.276;27.962;2024-03-29T03:41:33;97730.69;;;12.85;70.82
7268;BME280;3675;43.276;27.962;2024-03-29T03:44:29;97752.09;;;12.89;70.97
7268;BME280;3675;43.276;27.962;2024-03-29T03:47:49;97739.50;;;12.83;70.89
7268;BME280;3675;43.276;27.962;2024-03-29T03:51:11;97755.53;;;12.89;71.01
7268;BME280;3675;43.276;27.962;2024-03-29T03:54:00;97769.41;;;12.88;71.20
7268;BME280;3675;43.276;27.962;2024-03-29T03:57:10;97759.88;;;12.89;71.05
7268;BME280;3675;43.276;27.962;2024-03-29T04:03:11;97770.16;;;12.90;70.68
7268;BME280;3675;43.276;27.962;2024-03-29T04:05:50;97778.78;;;12.91;70.68
7268;BME280;3675;43.276;27.962;2024-03-29T04:08:30;97778.22;;;12.86;71.04
7268;BME280;3675;43.276;27.962;2024-03-29T04:11:40;97775.63;;;12.86;70.97
7268;BME280;3675;43.276;27.962;2024-03-29T04:15:00;97781.47;;;12.89;70.91
7268;BME280;3675;43.276;27.962;2024-03-29T04:17:59;97784.56;;;12.96;70.92
7268;BME280;3675;43.276;27.962;2024-03-29T04:20:59;97794.09;;;12.95;70.80
7268;BME280;3675;43.276;27.962;2024-03-29T04:24:14;97789.81;;;12.94;70.56
7268;BME280;3675;43.276;27.962;2024-03-29T04:27:12;97794.09;;;12.95;70.63
7268;BME280;3675;43.276;27.962;2024-03-29T04:34:04;97806.34;;;13.07;70.38
7268;BME280;3675;43.276;27.962;2024-03-29T04:37:51;97808.50;;;13.15;70.08
7268;BME280;3675;43.276;27.962;2024-03-29T04:40:55;97813.63;;;13.17;69.85
7268;BME280;3675;43.276;27.962;2024-03-29T04:44:02;97812.31;;;13.24;69.96
7268;BME280;3675;43.276;27.962;2024-03-29T04:47:10;97818.69;;;13.32;69.47
7268;BME280;3675;43.276;27.962;2024-03-29T04:50:09;97821.59;;;13.42;69.59
7268;BME280;3675;43.276;27.962;2024-03-29T04:53:28;97829.56;;;13.53;69.11
7268;BME280;3675;43.276;27.962;2024-03-29T04:56:45;97829.09;;;13.61;69.00
7268;BME280;3675;43.276;27.962;2024-03-29T04:59:39;97841.44;;;13.71;68.86
7268;BME280;3675;43.276;27.962;2024-03-29T05:02:44;97843.38;;;13.82;68.43
7268;BME280;3675;43.276;27.962;2024-03-29T05:05:42;97843.72;;;13.90;68.45
7268;BME280;3675;43.276;27.962;2024-03-29T05:12:19;97853.53;;;14.13;67.93
7268;BME280;3675;43.276;27.962;2024-03-29T05:15:21;97859.06;;;14.21;67.78
7268;BME280;3675;43.276;27.962;2024-03-29T05:18:29;97863.59;;;14.32;67.26
7268;BME280;3675;43.276;27.962;2024-03-29T05:21:29;97864.81;;;14.41;67.63
7268;BME280;3675;43.276;27.962;2024-03-29T05:24:13;97864.84;;;14.53;67.06
7268;BME280;3675;43.276;27.962;2024-03-29T05:27:03;97872.69;;;14.66;66.63
7268;BME280;3675;43.276;27.962;2024-03-29T05:36:49;97891.75;;;15.06;64.59
7268;BME280;3675;43.276;27.962;2024-03-29T05:43:12;97910.97;;;15.43;61.94
7268;BME280;3675;43.276;27.962;2024-03-29T05:46:25;97915.81;;;15.61;60.34
7268;BME280;3675;43.276;27.962;2024-03-29T05:49:11;97925.41;;;15.73;58.78
7268;BME280;3675;43.276;27.962;2024-03-29T05:52:37;97923.00;;;15.83;56.78
7268;BME280;3675;43.276;27.962;2024-03-29T05:55:41;97906.00;;;15.90;56.62
7268;BME280;3675;43.276;27.962;2024-03-29T05:58:51;97929.88;;;16.09;56.64
7268;BME280;3675;43.276;27.962;2024-03-29T06:01:46;97931.09;;;16.16;54.33
7268;BME280;3675;43.276;27.962;2024-03-29T06:04:43;97928.16;;;16.21;54.96
7268;BME280;3675;43.276;27.962;2024-03-29T06:07:32;97928.69;;;16.26;54.16
7268;BME280;3675;43.276;27.962;2024-03-29T06:10:48;97945.56;;;16.33;55.04
7268;BME280;3675;43.276;27.962;2024-03-29T06:14:05;97947.22;;;16.34;55.04
7268;BME280;3675;43.276;27.962;2024-03-29T06:17:01;97957.44;;;16.50;55.72
7268;BME280;3675;43.276;27.962;2024-03-29T06:20:14;97953.97;;;16.62;54.52
7268;BME280;3675;43.276;27.962;2024-03-29T06:23:07;97962.03;;;16.83;53.29
7268;BME280;3675;43.276;27.962;2024-03-29T06:26:14;97943.66;;;16.84;52.50
7268;BME280;3675;43.276;27.962;2024-03-29T06:29:15;97961.53;;;17.01;52.26
7268;BME280;3675;43.276;27.962;2024-03-29T06:32:16;97971.41;;;17.09;50.68
7268;BME280;3675;43.276;27.962;2024-03-29T06:35:09;97976.72;;;17.20;50.49
7268;BME280;3675;43.276;27.962;2024-03-29T06:38:07;97978.75;;;17.28;48.47
7268;BME280;3675;43.276;27.962;2024-03-29T06:44:19;97981.63;;;17.60;47.86
7268;BME280;3675;43.276;27.962;2024-03-29T06:47:31;97979.13;;;17.58;46.74
7268;BME280;3675;43.276;27.962;2024-03-29T06:50:22;97989.81;;;17.66;45.99
7268;BME280;3675;43.276;27.962;2024-03-29T06:56:55;97993.41;;;17.76;44.94
7268;BME280;3675;43.276;27.962;2024-03-29T07:00:17;98005.69;;;17.87;44.08
7268;BME280;3675;43.276;27.962;2024-03-29T07:06:23;98010.25;;;18.07;43.72
7268;BME280;3675;43.276;27.962;2024-03-29T07:09:46;98009.19;;;18.10;41.50
7268;BME280;3675;43.276;27.962;2024-03-29T07:12:47;98011.69;;;18.22;43.38
7268;BME280;3675;43.276;27.962;2024-03-29T07:16:05;98024.06;;;18.42;42.05
7268;BME280;3675;43.276;27.962;2024-03-29T07:19:15;98022.44;;;18.53;42.30
7268;BME280;3675;43.276;27.962;2024-03-29T07:22:15;98030.25;;;18.64;41.42
7268;BME280;3675;43.276;27.962;2024-03-29T07:25:10;98031.09;;;18.75;40.57
7268;BME280;3675;43.276;27.962;2024-03-29T07:28:09;98042.03;;;18.92;40.31
7268;BME280;3675;43.276;27.962;2024-03-29T07:31:15;98028.56;;;18.96;40.92
7268;BME280;3675;43.276;27.962;2024-03-29T07:34:13;98040.44;;;19.11;39.77
7268;BME280;3675;43.276;27.962;2024-03-29T07:37:10;98031.31;;;19.26;40.03
7268;BME280;3675;43.276;27.962;2024-03-29T07:40:08;98030.59;;;19.47;39.59
7268;BME280;3675;43.276;27.962;2024-03-29T07:42:57;98046.34;;;19.67;38.85
7268;BME280;3675;43.276;27.962;2024-03-29T07:45:48;98043.25;;;19.62;38.78
7268;BME280;3675;43.276;27.962;2024-03-29T07:49:10;98029.31;;;19.83;38.04
7268;BME280;3675;43.276;27.962;2024-03-29T07:52:10;98039.56;;;19.86;38.02
7268;BME280;3675;43.276;27.962;2024-03-29T07:58:51;98047.16;;;20.09;36.12
7268;BME280;3675;43.276;27.962;2024-03-29T08:06:13;98055.25;;;20.38;36.07
7268;BME280;3675;43.276;27.962;2024-03-29T08:09:32;98071.09;;;20.57;36.78
7268;BME280;3675;43.276;27.962;2024-03-29T08:12:41;98053.44;;;20.69;36.12
7268;BME280;3675;43.276;27.962;2024-03-29T08:15:29;98057.63;;;20.81;36.48
7268;BME280;3675;43.276;27.962;2024-03-29T08:25:20;98048.38;;;21.36;35.77
7268;BME280;3675;43.276;27.962;2024-03-29T08:32:04;98039.94;;;21.52;34.08
7268;BME280;3675;43.276;27.962;2024-03-29T08:36:09;98031.91;;;21.54;35.19
7268;BME280;3675;43.276;27.962;2024-03-29T08:39:29;98042.84;;;21.68;34.75
7268;BME280;3675;43.276;27.962;2024-03-29T08:46:04;98022.19;;;21.83;34.78
7268;BME280;3675;43.276;27.962;2024-03-29T08:49:40;98031.47;;;22.06;35.69
7268;BME280;3675;43.276;27.962;2024-03-29T08:52:32;98030.47;;;22.17;32.49
7268;BME280;3675;43.276;27.962;2024-03-29T08:55:37;98034.63;;;22.19;33.04
7268;BME280;3675;43.276;27.962;2024-03-29T08:58:46;98032.75;;;22.39;32.27
7268;BME280;3675;43.276;27.962;2024-03-29T09:02:12;98032.03;;;22.47;33.70
7268;BME280;3675;43.276;27.962;2024-03-29T09:05:55;98037.50;;;22.63;33.09
7268;BME280;3675;43.276;27.962;2024-03-29T09:08:58;98021.97;;;22.69;32.68
7268;BME280;3675;43.276;27.962;2024-03-29T09:11:58;98023.13;;;22.84;32.76
7268;BME280;3675;43.276;27.962;2024-03-29T09:15:22;98024.25;;;23.09;33.05
7268;BME280;3675;43.276;27.962;2024-03-29T09:18:40;98030.44;;;23.18;30.13
7268;BME280;3675;43.276;27.962;2024-03-29T09:21:43;98027.78;;;23.00;29.47
7268;BME280;3675;43.276;27.962;2024-03-29T09:25:21;98034.63;;;23.11;30.31
7268;BME280;3675;43.276;27.962;2024-03-29T09:28:47;98027.56;;;23.29;29.96
7268;BME280;3675;43.276;27.962;2024-03-29T09:31:52;98020.94;;;23.43;30.21
7268;BME280;3675;43.276;27.962;2024-03-29T09:35:11;98015.09;;;23.66;30.36
7268;BME280;3675;43.276;27.962;2024-03-29T09:38:19;98025.72;;;23.75;28.95
7268;BME280;3675;43.276;27.962;2024-03-29T09:41:24;98020.59;;;23.99;29.55
7268;BME280;3675;43.276;27.962;2024-03-29T09:44:36;98030.69;;;24.21;29.70
7268;BME280;3675;43.276;27.962;2024-03-29T09:48:09;98019.03;;;24.32;29.18
7268;BME280;3675;43.276;27.962;2024-03-29T09:51:21;98024.75;;;24.53;28.04
7268;BME280;3675;43.276;27.962;2024-03-29T09:58:28;98022.53;;;25.00;26.97
7268;BME280;3675;43.276;27.962;2024-03-29T10:01:34;98014.97;;;25.37;28.04
7268;BME280;3675;43.276;27.962;2024-03-29T10:04:45;98013.84;;;25.40;26.30
7268;BME280;3675;43.276;27.962;2024-03-29T10:08:10;98023.53;;;25.23;26.98
7268;BME280;3675;43.276;27.962;2024-03-29T10:11:23;98005.72;;;25.49;26.17
7268;BME280;3675;43.276;27.962;2024-03-29T10:14:48;98006.44;;;25.84;25.79
7268;BME280;3675;43.276;27.962;2024-03-29T10:18:28;98007.69;;;26.12;26.74
7268;BME280;3675;43.276;27.962;2024-03-29T10:21:28;98007.72;;;25.96;25.97
7268;BME280;3675;43.276;27.962;2024-03-29T10:24:23;98006.56;;;26.07;25.39
7268;BME280;3675;43.276;27.962;2024-03-29T10:28:14;98000.22;;;26.16;25.29
7268;BME280;3675;43.276;27.962;2024-03-29T10:30:44;97982.97;;;26.44;25.55
7268;BME280;3675;43.276;27.962;2024-03-29T10:34:19;97991.38;;;26.56;24.72
7268;BME280;3675;43.276;27.962;2024-03-29T10:37:55;97982.44;;;26.49;24.49
7268;BME280;3675;43.276;27.962;2024-03-29T10:40:39;97985.03;;;26.65;23.72
7268;BME280;3675;43.276;27.962;2024-03-29T10:44:07;97992.59;;;26.45;24.10
7268;BME280;3675;43.276;27.962;2024-03-29T10:50:20;97995.59;;;26.34;23.80
7268;BME280;3675;43.276;27.962;2024-03-29T10:53:40;98001.22;;;26.39;24.76
7268;BME280;3675;43.276;27.962;2024-03-29T10:56:57;97995.44;;;26.19;25.25
7268;BME280;3675;43.276;27.962;2024-03-29T11:00:06;97997.09;;;26.12;25.94
7268;BME280;3675;43.276;27.962;2024-03-29T11:06:14;98012.91;;;26.61;26.06
7268;BME280;3675;43.276;27.962;2024-03-29T11:09:33;98020.13;;;26.12;25.32
7268;BME280;3675;43.276;27.962;2024-03-29T11:12:57;98014.53;;;26.07;25.26
7268;BME280;3675;43.276;27.962;2024-03-29T11:16:21;98019.63;;;26.08;25.78
7268;BME280;3675;43.276;27.962;2024-03-29T11:19:46;98032.00;;;26.48;25.57
7268;BME280;3675;43.276;27.962;2024-03-29T11:22:46;98018.56;;;26.58;25.05
7268;BME280;3675;43.276;27.962;2024-03-29T11:26:04;98030.78;;;26.67;25.02
7268;BME280;3675;43.276;27.962;2024-03-29T11:29:26;98024.28;;;26.86;23.33
7268;BME280;3675;43.276;27.962;2024-03-29T11:32:42;98025.41;;;26.83;24.46
7268;BME280;3675;43.276;27.962;2024-03-29T11:35:39;98017.63;;;26.90;24.17
7268;BME280;3675;43.276;27.962;2024-03-29T11:38:57;98023.56;;;26.92;24.40
7268;BME280;3675;43.276;27.962;2024-03-29T11:42:43;98018.44;;;26.82;23.68
7268;BME280;3675;43.276;27.962;2024-03-29T11:45:35;98015.50;;;26.85;23.78
7268;BME280;3675;43.276;27.962;2024-03-29T11:48:26;98023.81;;;26.66;24.21
7268;BME280;3675;43.276;27.962;2024-03-29T11:51:18;98028.00;;;26.52;23.78
7268;BME280;3675;43.276;27.962;2024-03-29T11:54:28;98015.47;;;26.30;24.28
7268;BME280;3675;43.276;27.962;2024-03-29T11:57:40;98012.47;;;26.41;24.52
7268;BME280;3675;43.276;27.962;2024-03-29T12:03:45;98010.47;;;26.43;24.49
7268;BME280;3675;43.276;27.962;2024-03-29T12:07:11;98023.91;;;26.33;24.88
7268;BME280;3675;43.276;27.962;2024-03-29T12:10:01;98023.94;;;26.25;25.37
7268;BME280;3675;43.276;27.962;2024-03-29T12:12:43;98019.47;;;26.26;24.57
7268;BME280;3675;43.276;27.962;2024-03-29T12:18:58;98019.81;;;25.99;25.76
7268;BME280;3675;43.276;27.962;2024-03-29T12:22:07;98009.84;;;26.17;25.82
7268;BME280;3675;43.276;27.962;2024-03-29T12:24:45;98001.91;;;26.09;25.95
7268;BME280;3675;43.276;27.962;2024-03-29T12:27:37;98002.75;;;26.01;25.23
7268;BME280;3675;43.276;27.962;2024-03-29T12:30:48;98002.63;;;25.78;25.72
7268;BME280;3675;43.276;27.962;2024-03-29T12:37:17;98015.66;;;25.39;25.67
7268;BME280;3675;43.276;27.962;2024-03-29T12:44:19;98000.81;;;24.96;26.42
7268;BME280;3675;43.276;27.962;2024-03-29T12:47:26;98011.47;;;24.71;27.04
7268;BME280;3675;43.276;27.962;2024-03-29T12:50:19;97999.00;;;24.55;26.97
7268;BME280;3675;43.276;27.962;2024-03-29T12:54:00;98010.09;;;24.58;28.63
7268;BME280;3675;43.276;27.962;2024-03-29T12:57:43;98010.41;;;24.55;27.82
7268;BME280;3675;43.276;27.962;2024-03-29T13:06:34;98006.84;;;24.13;27.58
7268;BME280;3675;43.276;27.962;2024-03-29T13:09:55;97998.50;;;24.00;27.44
7268;BME280;3675;43.276;27.962;2024-03-29T13:13:07;97998.22;;;24.03;28.96
7268;BME280;3675;43.276;27.962;2024-03-29T13:20:03;98008.84;;;23.67;28.54
7268;BME280;3675;43.276;27.962;2024-03-29T13:22:41;98005.97;;;23.61;29.44
7268;BME280;3675;43.276;27.962;2024-03-29T13:25:47;98016.00;;;23.57;28.79
7268;BME280;3675;43.276;27.962;2024-03-29T13:28:52;98017.56;;;23.50;29.36
7268;BME280;3675;43.276;27.962;2024-03-29T13:31:45;98012.59;;;23.47;29.10
7268;BME280;3675;43.276;27.962;2024-03-29T13:35:07;98006.81;;;23.44;29.57
7268;BME280;3675;43.276;27.962;2024-03-29T13:38:45;97997.19;;;23.43;29.73
7268;BME280;3675;43.276;27.962;2024-03-29T13:41:30;98000.97;;;23.40;29.16
7268;BME280;3675;43.276;27.962;2024-03-29T13:44:37;97993.78;;;23.33;30.37
7268;BME280;3675;43.276;27.962;2024-03-29T13:47:32;98005.56;;;23.38;30.22
7268;BME280;3675;43.276;27.962;2024-03-29T13:50:40;98003.00;;;23.28;30.18
7268;BME280;3675;43.276;27.962;2024-03-29T13:53:41;97992.28;;;23.12;29.96
7268;BME280;3675;43.276;27.962;2024-03-29T14:03:22;98014.75;;;23.16;29.53
7268;BME280;3675;43.276;27.962;2024-03-29T14:06:14;98021.31;;;23.12;29.56
7268;BME280;3675;43.276;27.962;2024-03-29T14:09:12;98024.31;;;23.00;29.83
7268;BME280;3675;43.276;27.962;2024-03-29T14:12:12;98011.44;;;22.97;29.85
7268;BME280;3675;43.276;27.962;2024-03-29T14:15:02;98017.94;;;22.93;30.16
7268;BME280;3675;43.276;27.962;2024-03-29T14:21:53;98017.63;;;22.78;30.67
7268;BME280;3675;43.276;27.962;2024-03-29T14:25:00;98019.19;;;22.71;30.86
7268;BME280;3675;43.276;27.962;2024-03-29T14:28:13;98013.22;;;22.69;30.16
7268;BME280;3675;43.276;27.962;2024-03-29T14:31:17;98018.78;;;22.66;30.00
7268;BME280;3675;43.276;27.962;2024-03-29T14:34:12;98005.59;;;22.66;30.43
7268;BME280;3675;43.276;27.962;2024-03-29T14:40:27;98007.09;;;22.68;29.40
7268;BME280;3675;43.276;27.962;2024-03-29T14:43:26;98023.03;;;22.76;29.61
7268;BME280;3675;43.276;27.962;2024-03-29T14:47:26;98022.38;;;22.74;29.98
7268;BME280;3675;43.276;27.962;2024-03-29T14:56:53;98023.63;;;22.70;29.50
7268;BME280;3675;43.276;27.962;2024-03-29T15:03:18;98029.41;;;22.83;29.74
7268;BME280;3675;43.276;27.962;2024-03-29T15:09:34;98042.00;;;22.90;29.22
7268;BME280;3675;43.276;27.962;2024-03-29T15:12:22;98037.97;;;22.86;29.70
7268;BME280;3675;43.276;27.962;2024-03-29T15:15:57;98049.28;;;22.78;29.76
7268;BME280;3675;43.276;27.962;2024-03-29T15:18:47;98043.59;;;22.63;30.67
7268;BME280;3675;43.276;27.962;2024-03-29T15:22:08;98031.91;;;22.48;29.79
7268;BME280;3675;43.276;27.962;2024-03-29T15:25:08;98035.97;;;22.33;30.32
7268;BME280;3675;43.276;27.962;2024-03-29T15:31:53;98050.31;;;22.11;30.04
7268;BME280;3675;43.276;27.962;2024-03-29T15:35:02;98053.06;;;22.00;31.11
7268;BME280;3675;43.276;27.962;2024-03-29T15:38:03;98044.78;;;21.85;31.02
7268;BME280;3675;43.276;27.962;2024-03-29T15:41:15;98048.78;;;21.80;31.00
7268;BME280;3675;43.276;27.962;2024-03-29T15:44:15;98051.00;;;21.65;31.80
7268;BME280;3675;43.276;27.962;2024-03-29T15:47:15;98051.56;;;21.59;32.17
7268;BME280;3675;43.276;27.962;2024-03-29T15:50:30;98046.72;;;21.55;32.54
7268;BME280;3675;43.276;27.962;2024-03-29T15:53:39;98046.56;;;21.46;32.49
7268;BME280;3675;43.276;27.962;2024-03-29T15:56:42;98050.84;;;21.38;32.22
7268;BME280;3675;43.276;27.962;2024-03-29T15:59:56;98052.34;;;21.21;32.21
7268;BME280;3675;43.276;27.962;2024-03-29T16:03:10;98050.25;;;21.05;32.07
7268;BME280;3675;43.276;27.962;2024-03-29T16:06:09;98058.53;;;21.01;32.36
7268;BME280;3675;43.276;27.962;2024-03-29T16:09:21;98057.25;;;20.95;32.34
7268;BME280;3675;43.276;27.962;2024-03-29T16:12:29;98064.28;;;20.85;33.57
7268;BME280;3675;43.276;27.962;2024-03-29T16:15:34;98062.88;;;20.81;32.97
7268;BME280;3675;43.276;27.962;2024-03-29T16:18:46;98071.88;;;20.79;33.39
7268;BME280;3675;43.276;27.962;2024-03-29T16:21:58;98075.97;;;20.72;33.35
7268;BME280;3675;43.276;27.962;2024-03-29T16:25:06;98073.19;;;20.63;34.24
7268;BME280;3675;43.276;27.962;2024-03-29T16:28:17;98083.00;;;20.61;34.22
7268;BME280;3675;43.276;27.962;2024-03-29T16:31:22;98090.56;;;20.55;34.73
7268;BME280;3675;43.276;27.962;2024-03-29T16:34:09;98094.94;;;20.45;34.49
7268;BME280;3675;43.276;27.962;2024-03-29T16:37:16;98089.66;;;20.35;34.77
7268;BME280;3675;43.276;27.962;2024-03-29T16:40:18;98101.97;;;20.24;34.72
7268;BME280;3675;43.276;27.962;2024-03-29T16:43:34;98111.34;;;20.16;34.31
7268;BME280;3675;43.276;27.962;2024-03-29T16:46:31;98114.00;;;20.05;35.12
7268;BME280;3675;43.276;27.962;2024-03-29T16:53:08;98118.50;;;19.94;35.87
7268;BME280;3675;43.276;27.962;2024-03-29T17:00:10;98125.25;;;19.76;35.68
7268;BME280;3675;43.276;27.962;2024-03-29T17:06:32;98144.34;;;19.66;35.35
7268;BME280;3675;43.276;27.962;2024-03-29T17:09:48;98153.81;;;19.58;35.30
7268;BME280;3675;43.276;27.962;2024-03-29T17:12:35;98146.09;;;19.45;35.45
7268;BME280;3675;43.276;27.962;2024-03-29T17:15:47;98159.53;;;19.41;35.90
7268;BME280;3675;43.276;27.962;2024-03-29T17:19:13;98165.25;;;19.35;35.95
7268;BME280;3675;43.276;27.962;2024-03-29T17:25:31;98170.28;;;19.04;37.36
7268;BME280;3675;43.276;27.962;2024-03-29T17:29:56;98183.75;;;19.00;37.44
7268;BME280;3675;43.276;27.962;2024-03-29T17:31:57;98193.41;;;18.88;37.83
7268;BME280;3675;43.276;27.962;2024-03-29T17:35:09;98186.00;;;18.71;38.47
7268;BME280;3675;43.276;27.962;2024-03-29T17:38:28;98197.63;;;18.56;38.67
7268;BME280;3675;43.276;27.962;2024-03-29T17:41:22;98190.91;;;18.40;39.14
7268;BME280;3675;43.276;27.962;2024-03-29T17:44:19;98200.63;;;18.27;39.73
7268;BME280;3675;43.276;27.962;2024-03-29T17:47:27;98207.03;;;18.23;40.07
7268;BME280;3675;43.276;27.962;2024-03-29T17:50:13;98202.03;;;18.20;39.87
7268;BME280;3675;43.276;27.962;2024-03-29T17:52:55;98193.50;;;18.06;40.10
7268;BME280;3675;43.276;27.962;2024-03-29T17:55:40;98205.16;;;18.02;40.30
7268;BME280;3675;43.276;27.962;2024-03-29T17:58:38;98201.41;;;17.93;40.79
7268;BME280;3675;43.276;27.962;2024-03-29T18:01:18;98202.50;;;17.90;40.82
7268;BME280;3675;43.276;27.962;2024-03-29T18:04:17;98196.44;;;17.90;40.80
7268;BME280;3675;43.276;27.962;2024-03-29T18:07:04;98192.25;;;17.87;40.92
7268;BME280;3675;43.276;27.962;2024-03-29T18:09:58;98172.94;;;17.77;40.80
7268;BME280;3675;43.276;27.962;2024-03-29T18:12:47;98185.41;;;17.74;40.95
7268;BME280;3675;43.276;27.962;2024-03-29T18:15:29;98191.81;;;17.70;41.08
7268;BME280;3675;43.276;27.962;2024-03-29T18:21:46;98207.66;;;17.43;41.42
7268;BME280;3675;43.276;27.962;2024-03-29T18:24:40;98212.25;;;17.39;41.41
7268;BME280;3675;43.276;27.962;2024-03-29T18:27:42;98216.75;;;17.37;41.46
7268;BME280;3675;43.276;27.962;2024-03-29T18:31:01;98220.84;;;17.41;41.56
7268;BME280;3675;43.276;27.962;2024-03-29T18:33:58;98212.88;;;17.43;41.57
7268;BME280;3675;43.276;27.962;2024-03-29T18:37:04;98217.38;;;17.41;41.44
7268;BME280;3675;43.276;27.962;2024-03-29T18:40:32;98217.59;;;17.38;41.52
7268;BME280;3675;43.276;27.962;2024-03-29T18:43:57;98215.94;;;17.37;42.08
7268;BME280;3675;43.276;27.962;2024-03-29T18:46:46;98214.38;;;17.34;42.24
7268;BME280;3675;43.276;27.962;2024-03-29T18:49:51;98211.84;;;17.33;42.54
7268;BME280;3675;43.276;27.962;2024-03-29T18:52:43;98208.72;;;17.28;42.23
7268;BME280;3675;43.276;27.962;2024-03-29T18:55:36;98214.38;;;17.22;42.12
7268;BME280;3675;43.276;27.962;2024-03-29T18:58:50;98215.22;;;17.10;42.58
7268;BME280;3675;43.276;27.962;2024-03-29T19:05:08;98211.25;;;17.04;43.05
7268;BME280;3675;43.276;27.962;2024-03-29T19:08:25;98225.69;;;16.97;42.87
7268;BME280;3675;43.276;27.962;2024-03-29T19:11:46;98217.34;;;16.92;43.29
7268;BME280;3675;43.276;27.962;2024-03-29T19:15:18;98216.94;;;16.85;43.94